Time;durP1;ratioP1;P1;durP2;ratioP2;P2;SDS_P1;SDS_P2;PMS_P1;PMS_P2;Temp;Humidity;BMP_temperature;BMP_pressure;BME280_temperature;BME280_humidity;BME280_pressure;Samples;Min_cycle;Max_cycle;Signal;HPM_P1;HPM_P2
2023/12/05 00:01:04;;;;;;;5.40;4.90;;;-0.20;99.90;-0.50;99915.00;;;;4949271;28;120834;-66
2023/12/05 00:03:29;;;;;;;9.20;5.80;;;-0.20;99.90;-0.50;99898.00;;;;4950429;28;110843;-65
2023/12/05 00:05:55;;;;;;;8.53;6.07;;;-0.10;99.90;-0.50;99896.00;;;;4945530;28;106920;-65
2023/12/05 00:08:20;;;;;;;11.57;6.30;;;-0.10;99.90;-0.50;99891.00;;;;4948050;28;122406;-66
2023/12/05 00:10:46;;;;;;;8.97;6.63;;;-0.20;99.90;-0.50;99889.00;;;;4946237;28;121370;-65
2023/12/05 00:13:12;;;;;;;9.30;6.20;;;-0.10;99.90;-0.50;99897.00;;;;4949495;28;93134;-65
2023/12/05 00:15:44;;;;;;;10.97;6.10;;;-0.10;99.90;-0.50;99892.00;;;;4949936;28;93047;-67
2023/12/05 00:18:09;;;;;;;9.87;6.60;;;-0.20;99.90;-0.50;99900.00;;;;4953743;28;102583;-65
2023/12/05 00:20:35;;;;;;;9.33;6.43;;;-0.20;99.90;-0.50;99891.00;;;;4947588;28;119404;-66
2023/12/05 00:23:01;;;;;;;9.40;6.80;;;-0.20;99.90;-0.50;99892.00;;;;4952744;28;110597;-65
2023/12/05 00:25:26;;;;;;;10.63;6.50;;;-0.10;99.90;-0.50;99891.00;;;;4951104;28;108067;-65
2023/12/05 00:27:52;;;;;;;8.10;6.00;;;-0.20;99.90;-0.50;99901.00;;;;4948790;28;124189;-66
2023/12/05 00:30:18;;;;;;;7.07;5.40;;;-0.10;99.90;-0.50;99892.00;;;;4952497;28;120542;-64
2023/12/05 00:32:43;;;;;;;9.00;6.43;;;-0.20;99.90;-0.50;99896.00;;;;4950134;28;99044;-65
2023/12/05 00:35:09;;;;;;;8.23;6.57;;;-0.10;99.90;-0.50;99881.00;;;;4949626;28;109070;-66
2023/12/05 00:37:35;;;;;;;7.70;5.23;;;-0.10;99.90;-0.50;99881.00;;;;4950037;28;93935;-65
2023/12/05 00:40:00;;;;;;;6.87;6.13;;;-0.10;99.90;-0.50;99879.00;;;;4947927;28;123096;-65
2023/12/05 00:42:26;;;;;;;9.10;5.93;;;-0.20;99.90;-0.50;99886.00;;;;4949102;28;110596;-66
2023/12/05 00:44:52;;;;;;;6.03;5.00;;;0.50;99.90;-0.40;99877.00;;;;4947340;28;108809;-66
2023/12/05 00:47:17;;;;;;;7.17;4.80;;;-0.10;99.90;-0.40;99868.00;;;;4952141;28;122302;-66
2023/12/05 00:49:43;;;;;;;6.87;5.93;;;-0.10;99.90;-0.40;99865.00;;;;4951117;28;121584;-66
2023/12/05 00:52:08;;;;;;;8.40;5.10;;;0.00;99.90;-0.40;99853.00;;;;4951290;28;101454;-66
2023/12/05 00:54:34;;;;;;;12.37;6.60;;;-0.10;99.90;-0.40;99856.00;;;;4949292;28;108436;-64
2023/12/05 00:57:00;;;;;;;8.07;4.70;;;0.00;99.90;-0.40;99853.00;;;;4954215;28;93379;-65
2023/12/05 00:59:25;;;;;;;8.17;5.77;;;0.00;99.90;-0.40;99848.00;;;;4952612;28;111005;-65
2023/12/05 01:01:51;;;;;;;7.60;6.83;;;0.00;99.90;-0.40;99856.00;;;;4950703;28;109929;-65
2023/12/05 01:04:17;;;;;;;12.53;6.60;;;0.00;99.90;-0.40;99855.00;;;;4950007;28;108583;-65
2023/12/05 01:06:43;;;;;;;9.23;5.67;;;0.00;99.90;-0.30;99855.00;;;;4952306;28;93830;-65
2023/12/05 01:09:10;;;;;;;7.73;6.27;;;0.00;99.90;-0.30;99861.00;;;;4951159;28;121354;-66
2023/12/05 01:11:36;;;;;;;8.67;5.63;;;-0.80;99.90;-0.30;99858.00;;;;4950549;28;92233;-65
2023/12/05 01:14:02;;;;;;;8.80;5.63;;;0.00;99.90;-0.30;99853.00;;;;4949405;28;93108;-66
2023/12/05 01:16:27;;;;;;;9.37;6.60;;;0.10;99.90;-0.30;99843.00;;;;4949204;28;122047;-65
2023/12/05 01:18:53;;;;;;;7.13;5.40;;;0.00;99.90;-0.30;99847.00;;;;4949500;28;122042;-66
2023/12/05 01:21:19;;;;;;;10.23;6.77;;;0.00;99.90;-0.30;99840.00;;;;4944898;28;110817;-65
2023/12/05 01:23:44;;;;;;;8.90;5.63;;;0.00;99.90;-0.30;99841.00;;;;4953146;28;98042;-66
2023/12/05 01:26:10;;;;;;;10.87;5.57;;;0.00;99.90;-0.30;99836.00;;;;4953577;28;121573;-66
2023/12/05 01:28:36;;;;;;;6.00;4.30;;;0.00;99.90;-0.30;99853.00;;;;4955629;28;99415;-66
2023/12/05 01:31:02;;;;;;;7.00;4.40;;;0.00;99.90;-0.30;99846.00;;;;4951105;28;110802;-66
2023/12/05 01:33:27;;;;;;;6.23;5.07;;;0.00;99.90;-0.30;99848.00;;;;4950708;28;92966;-65
2023/12/05 01:35:53;;;;;;;8.43;5.73;;;0.00;99.90;-0.30;99852.00;;;;4956896;28;125079;-64
2023/12/05 01:38:19;;;;;;;5.60;4.37;;;0.10;99.90;-0.30;99864.00;;;;4950502;28;120139;-64
2023/12/05 01:40:45;;;;;;;8.97;5.57;;;0.10;99.90;-0.30;99857.00;;;;4951525;28;92836;-65
2023/12/05 01:43:11;;;;;;;9.07;5.17;;;0.00;99.90;-0.30;99864.00;;;;4949079;28;108077;-64
2023/12/05 01:45:37;;;;;;;7.97;5.03;;;0.10;99.90;-0.30;99852.00;;;;4955555;28;93229;-64
2023/12/05 01:48:04;;;;;;;7.53;4.90;;;0.10;99.90;-0.30;99848.00;;;;4953692;28;93009;-65
2023/12/05 01:50:31;;;;;;;5.17;4.07;;;0.00;99.90;-0.30;99850.00;;;;4956438;28;93600;-64
2023/12/05 01:53:03;;;;;;;9.23;4.83;;;0.00;99.90;-0.30;99857.00;;;;4950565;28;106395;-67
2023/12/05 01:55:29;;;;;;;7.73;4.90;;;-0.30;99.90;-0.40;99847.00;;;;4955775;28;94604;-66
2023/12/05 01:57:56;;;;;;;6.33;4.50;;;0.10;99.90;-0.40;99857.00;;;;4949996;28;122371;-65
2023/12/05 02:00:23;;;;;;;6.90;5.23;;;0.00;99.90;-0.40;99869.00;;;;4944575;28;92303;-64
2023/12/05 02:02:49;;;;;;;8.90;4.80;;;0.00;99.90;-0.40;99846.00;;;;4951233;28;92945;-66
2023/12/05 02:05:15;;;;;;;6.10;4.30;;;0.00;99.90;-0.40;99855.00;;;;4953367;28;122372;-65
2023/12/05 02:07:41;;;;;;;5.70;4.40;;;-0.10;99.90;-0.40;99853.00;;;;4949718;28;93873;-65
2023/12/05 02:10:09;;;;;;;9.50;5.63;;;-0.10;99.90;-0.40;99846.00;;;;4951612;28;110581;-65
2023/12/05 02:12:38;;;;;;;5.57;5.00;;;-0.10;99.90;-0.50;99843.00;;;;4953698;28;93119;-64
2023/12/05 02:15:05;;;;;;;7.17;5.33;;;-0.10;99.90;-0.50;99841.00;;;;4955278;28;93717;-65
2023/12/05 02:18:01;;;;;;;7.83;5.37;;;0.00;99.90;-0.50;99848.00;;;;4950805;28;94019;-65
2023/12/05 02:20:40;;;;;;;6.83;5.73;;;0.00;99.90;-0.50;99843.00;;;;4953341;28;93096;-64
2023/12/05 02:23:49;;;;;;;7.77;4.77;;;-0.10;99.90;-0.50;99826.00;;;;4954802;28;92946;-64
2023/12/05 02:26:58;;;;;;;6.97;5.03;;;-0.10;99.90;-0.60;99819.00;;;;4953467;28;92299;-64
2023/12/05 02:29:25;;;;;;;6.97;4.97;;;-0.30;99.90;-0.60;99812.00;;;;4948473;28;94107;-65
2023/12/05 02:31:50;;;;;;;6.43;5.30;;;-0.20;99.90;-0.60;99824.00;;;;4951793;28;94457;-65
2023/12/05 02:34:16;;;;;;;8.73;5.47;;;-0.20;99.90;-0.60;99818.00;;;;4948965;28;108798;-65
2023/12/05 02:37:27;;;;;;;7.57;5.37;;;-0.30;99.90;-0.70;99809.00;;;;4945089;28;121487;-66
2023/12/05 02:40:15;;;;;;;11.27;5.47;;;-0.40;99.90;-0.70;99809.00;;;;4937899;28;93576;-64
2023/12/05 02:42:44;;;;;;;8.17;5.20;;;-0.30;99.90;-0.70;99819.00;;;;4946857;28;93006;-66
2023/12/05 02:45:20;;;;;;;6.67;4.37;;;-0.30;99.90;-0.80;99813.00;;;;4945159;28;99982;-65
2023/12/05 02:47:48;;;;;;;10.37;5.33;;;-0.40;99.90;-0.70;99811.00;;;;4958619;28;93241;-65
2023/12/05 02:50:20;;;;;;;8.60;5.13;;;-0.40;99.90;-0.80;99808.00;;;;4952550;28;98518;-66
2023/12/05 02:52:46;;;;;;;7.40;5.20;;;-0.40;99.90;-0.80;99803.00;;;;4954124;28;109533;-66
2023/12/05 02:55:12;;;;;;;8.30;5.67;;;-0.40;99.90;-0.80;99806.00;;;;4951930;28;93130;-66
2023/12/05 02:57:37;;;;;;;10.23;6.83;;;-0.40;99.90;-0.80;99799.00;;;;4952443;28;106781;-65
2023/12/05 03:00:04;;;;;;;9.07;5.40;;;-0.50;99.90;-0.80;99796.00;;;;4954405;28;123520;-66
2023/12/05 03:02:30;;;;;;;9.23;6.00;;;-0.40;99.90;-0.80;99804.00;;;;4954428;28;93134;-66
2023/12/05 03:04:56;;;;;;;11.67;6.43;;;-0.40;99.90;-0.80;99792.00;;;;4949114;28;97980;-65
2023/12/05 03:07:21;;;;;;;7.73;5.10;;;-0.40;99.90;-0.80;99798.00;;;;4949947;28;121808;-65
2023/12/05 03:09:47;;;;;;;9.40;5.90;;;-0.40;99.90;-0.80;99798.00;;;;4951644;28;121408;-65
2023/12/05 03:12:13;;;;;;;7.43;5.53;;;-0.40;99.90;-0.80;99788.00;;;;4946086;28;110470;-65
2023/12/05 03:14:38;;;;;;;8.00;5.30;;;-0.40;99.90;-0.80;99779.00;;;;4953011;28;94093;-64
2023/12/05 03:17:04;;;;;;;11.83;5.97;;;-0.50;99.90;-0.90;99791.00;;;;4949663;28;122853;-64
2023/12/05 03:19:29;;;;;;;7.57;4.77;;;-0.20;99.90;-0.90;99787.00;;;;4954106;28;122371;-64
2023/12/05 03:21:55;;;;;;;10.37;5.77;;;-0.50;99.90;-0.90;99788.00;;;;4952336;28;110494;-64
2023/12/05 03:24:21;;;;;;;9.87;5.30;;;-0.50;99.90;-0.90;99787.00;;;;4951439;28;94127;-64
2023/12/05 03:26:47;;;;;;;11.10;6.30;;;-0.50;99.90;-0.90;99787.00;;;;4950693;28;123241;-65
2023/12/05 03:29:12;;;;;;;9.53;6.40;;;-0.50;99.90;-0.90;99784.00;;;;4948150;28;121834;-64
2023/12/05 03:31:42;;;;;;;7.80;5.50;;;-0.40;99.90;-0.90;99783.00;;;;4948382;28;111026;-65
2023/12/05 03:34:08;;;;;;;9.57;5.93;;;-0.50;99.90;-0.90;99787.00;;;;4952041;28;108426;-65
2023/12/05 03:36:34;;;;;;;7.57;5.67;;;-0.50;99.90;-0.90;99785.00;;;;4948667;28;122232;-64
2023/12/05 03:38:59;;;;;;;7.60;5.73;;;-0.60;99.90;-0.90;99786.00;;;;4952244;28;122338;-65
2023/12/05 03:41:25;;;;;;;6.80;5.93;;;-0.60;99.90;-1.00;99781.00;;;;4951821;28;109187;-65
2023/12/05 03:43:51;;;;;;;7.03;4.57;;;-0.60;99.90;-1.00;99785.00;;;;4952570;28;109328;-64
2023/12/05 03:46:16;;;;;;;7.83;5.53;;;-0.60;99.90;-1.00;99777.00;;;;4948075;28;120606;-64
2023/12/05 03:48:42;;;;;;;12.07;6.60;;;-0.60;99.90;-1.00;99773.00;;;;4944366;28;121078;-64
2023/12/05 03:51:08;;;;;;;8.73;6.07;;;-0.60;99.90;-1.00;99777.00;;;;4947531;28;110966;-65
2023/12/05 03:53:33;;;;;;;8.00;5.67;;;-0.60;99.90;-1.00;99780.00;;;;4944008;28;107636;-64
2023/12/05 03:55:59;;;;;;;11.37;6.20;;;-0.70;99.90;-1.00;99779.00;;;;4946179;28;102859;-64
2023/12/05 03:58:30;;;;;;;9.10;6.13;;;-0.60;99.90;-1.00;99773.00;;;;4948629;28;121755;-64
2023/12/05 04:00:56;;;;;;;10.07;6.37;;;-0.70;99.90;-1.00;99784.00;;;;4945542;28;110744;-64
2023/12/05 04:03:22;;;;;;;9.67;6.27;;;-0.70;99.90;-1.10;99789.00;;;;4942951;28;109711;-65
2023/12/05 04:05:47;;;;;;;8.23;6.33;;;-0.70;99.90;-1.00;99786.00;;;;4947300;28;122029;-64
2023/12/05 04:08:13;;;;;;;9.97;5.93;;;-0.70;99.90;-1.00;99789.00;;;;4948154;28;92856;-64
2023/12/05 04:10:39;;;;;;;8.97;6.23;;;-0.70;99.90;-1.00;99787.00;;;;4948294;28;110502;-64
2023/12/05 04:13:04;;;;;;;10.37;6.67;;;-0.70;99.90;-1.10;99793.00;;;;4950465;28;109094;-64
2023/12/05 04:15:30;;;;;;;7.97;5.50;;;-0.70;99.90;-1.10;99791.00;;;;4948170;28;111781;-63
2023/12/05 04:17:56;;;;;;;10.67;6.27;;;-0.70;99.90;-1.10;99788.00;;;;4948064;28;123463;-63
2023/12/05 04:20:22;;;;;;;8.93;7.00;;;-0.70;99.90;-1.10;99773.00;;;;4947551;28;94026;-64
2023/12/05 04:22:48;;;;;;;8.30;5.57;;;-0.70;99.90;-1.10;99788.00;;;;4950560;28;108203;-64
2023/12/05 04:25:15;;;;;;;9.53;6.43;;;-0.70;99.90;-1.10;99784.00;;;;4950974;28;123390;-64
2023/12/05 04:27:41;;;;;;;10.43;6.37;;;-0.80;99.90;-1.10;99786.00;;;;4946277;28;94701;-63
2023/12/05 04:30:07;;;;;;;11.87;6.33;;;-0.60;99.90;-1.10;99780.00;;;;4951183;28;111642;-63
2023/12/05 04:32:33;;;;;;;9.97;6.50;;;-0.80;99.90;-1.10;99791.00;;;;4945464;28;98480;-64
2023/12/05 04:34:58;;;;;;;8.93;6.40;;;-0.80;99.90;-1.20;99788.00;;;;4952110;28;122996;-64
2023/12/05 04:37:24;;;;;;;11.70;5.97;;;-0.70;99.90;-1.20;99787.00;;;;4945566;28;121776;-64
2023/12/05 04:39:50;;;;;;;7.53;6.23;;;-0.90;99.90;-1.20;99788.00;;;;4947862;28;110309;-64
2023/12/05 04:42:15;;;;;;;8.47;5.43;;;-0.80;99.90;-1.20;99780.00;;;;4948838;28;107951;-64
2023/12/05 04:44:41;;;;;;;9.57;6.33;;;-0.90;99.90;-1.20;99785.00;;;;4944312;28;121940;-64
2023/12/05 04:47:06;;;;;;;11.47;6.27;;;-0.70;99.90;-1.20;99785.00;;;;4945818;28;123148;-64
2023/12/05 04:49:33;;;;;;;12.27;7.13;;;-0.90;99.90;-1.20;99798.00;;;;4950939;28;93074;-64
2023/12/05 04:51:59;;;;;;;10.67;6.37;;;-0.80;99.90;-1.20;99792.00;;;;4948408;28;108599;-64
2023/12/05 04:54:25;;;;;;;7.50;5.67;;;-0.90;99.90;-1.20;99809.00;;;;4953851;28;121486;-65
2023/12/05 04:56:50;;;;;;;8.13;6.60;;;-0.80;99.90;-1.20;99798.00;;;;4947619;28;92775;-65
2023/12/05 04:59:16;;;;;;;9.03;5.53;;;-0.90;99.90;-1.30;99801.00;;;;4946642;28;111388;-63
2023/12/05 05:01:42;;;;;;;7.60;5.70;;;-0.90;99.90;-1.20;99793.00;;;;4955044;28;107769;-64
2023/12/05 05:04:07;;;;;;;6.83;5.07;;;-0.90;99.90;-1.30;99788.00;;;;4952236;28;99187;-63
2023/12/05 05:06:33;;;;;;;10.20;6.00;;;0.00;99.90;-1.30;99796.00;;;;4950350;28;101257;-64
2023/12/05 05:08:59;;;;;;;10.43;6.27;;;-1.00;99.90;-1.30;99794.00;;;;4952997;28;108941;-63
2023/12/05 05:11:24;;;;;;;10.13;7.00;;;-0.80;99.90;-1.30;99795.00;;;;4951051;28;108902;-63
2023/12/05 05:13:50;;;;;;;10.27;6.50;;;-0.90;99.90;-1.40;99786.00;;;;4951819;28;123105;-66
2023/12/05 05:16:15;;;;;;;7.37;5.93;;;-0.50;99.90;-1.40;99794.00;;;;4951430;28;122962;-64
2023/12/05 05:18:41;;;;;;;8.80;6.03;;;-1.00;99.90;-1.40;99787.00;;;;4951775;28;109937;-64
2023/12/05 05:21:07;;;;;;;8.53;5.63;;;-1.00;99.90;-1.40;99788.00;;;;4955907;28;93595;-64
2023/12/05 05:23:33;;;;;;;8.47;6.30;;;-1.00;99.90;-1.50;99790.00;;;;4953142;28;113678;-65
2023/12/05 05:25:59;;;;;;;8.10;5.30;;;-1.10;99.90;-1.50;99787.00;;;;4952294;28;112845;-64
2023/12/05 05:28:25;;;;;;;9.83;5.47;;;-1.10;99.90;-1.50;99788.00;;;;4947779;28;104876;-64
2023/12/05 05:30:54;;;;;;;9.30;6.03;;;-1.20;99.90;-1.60;99793.00;;;;4948845;28;108250;-64
2023/12/05 05:33:22;;;;;;;10.77;5.73;;;-1.20;99.90;-1.60;99791.00;;;;4950200;28;94256;-64
2023/12/05 05:35:47;;;;;;;15.20;7.57;;;-1.20;99.90;-1.70;99808.00;;;;4954340;28;122252;-65
2023/12/05 05:38:13;;;;;;;12.70;7.20;;;-1.30;99.90;-1.70;99806.00;;;;4957851;28;109521;-63
2023/12/05 05:40:47;;;;;;;12.67;6.53;;;-1.20;99.90;-1.70;99803.00;;;;4956748;28;108564;-63
2023/12/05 05:43:16;;;;;;;10.03;6.87;;;-1.00;99.90;-1.70;99804.00;;;;4959571;28;93033;-64
2023/12/05 05:45:41;;;;;;;10.83;6.67;;;-1.30;99.90;-1.70;99795.00;;;;4951470;28;121064;-65
2023/12/05 05:48:07;;;;;;;11.10;7.33;;;-1.40;99.90;-1.80;99792.00;;;;4953082;28;108948;-65
2023/12/05 05:50:33;;;;;;;8.47;6.20;;;-1.30;99.90;-1.80;99799.00;;;;4950073;28;109858;-64
2023/12/05 05:52:58;;;;;;;12.30;5.97;;;-1.30;99.90;-1.80;99793.00;;;;4948835;28;111882;-65
2023/12/05 05:55:24;;;;;;;12.67;6.90;;;-1.40;99.90;-1.80;99803.00;;;;4951558;28;125342;-64
2023/12/05 05:57:51;;;;;;;8.90;6.87;;;-1.40;99.90;-1.80;99797.00;;;;4952639;28;93150;-64
2023/12/05 06:00:17;;;;;;;10.83;6.07;;;-1.40;99.90;-1.80;99800.00;;;;4953210;28;96339;-63
2023/12/05 06:02:44;;;;;;;10.33;6.03;;;-0.60;99.90;-1.80;99792.00;;;;4954094;28;112476;-64
2023/12/05 06:05:10;;;;;;;10.20;6.23;;;-1.40;99.90;-1.70;99788.00;;;;4955157;28;103021;-64
2023/12/05 06:07:37;;;;;;;10.43;5.50;;;-1.30;99.90;-1.70;99790.00;;;;4950523;28;98686;-64
2023/12/05 06:10:06;;;;;;;12.53;6.93;;;-1.30;99.90;-1.60;99784.00;;;;4953788;28;93111;-63
2023/12/05 06:12:32;;;;;;;10.23;6.03;;;-1.20;99.90;-1.50;99786.00;;;;4953012;28;93769;-64
2023/12/05 06:14:57;;;;;;;6.93;4.77;;;-1.20;99.90;-1.50;99804.00;;;;4952128;28;94004;-64
2023/12/05 06:17:23;;;;;;;12.10;7.17;;;-1.20;99.90;-1.50;99789.00;;;;4949093;28;109367;-63
2023/12/05 06:19:50;;;;;;;8.90;6.27;;;-1.10;99.90;-1.40;99790.00;;;;4954040;28;107149;-64
2023/12/05 06:22:15;;;;;;;7.67;5.70;;;-1.00;99.90;-1.40;99790.00;;;;4951132;28;94030;-64
2023/12/05 06:24:41;;;;;;;11.43;6.50;;;-1.00;99.90;-1.30;99796.00;;;;4952169;28;119399;-65
2023/12/05 06:27:06;;;;;;;8.23;6.10;;;-1.00;99.90;-1.30;99805.00;;;;4949017;28;109329;-62
2023/12/05 06:29:32;;;;;;;13.57;7.10;;;-0.90;99.90;-1.30;99800.00;;;;4954789;28;108828;-65
2023/12/05 06:31:58;;;;;;;12.27;6.53;;;-0.90;99.90;-1.30;99783.00;;;;4948336;28;122427;-64
2023/12/05 06:34:24;;;;;;;7.90;6.00;;;-0.90;99.90;-1.30;99792.00;;;;4949644;28;121807;-64
2023/12/05 06:36:50;;;;;;;7.57;4.90;;;-1.00;99.90;-1.30;99790.00;;;;4950267;28;92840;-63
2023/12/05 06:39:16;;;;;;;7.73;6.27;;;-0.80;99.90;-1.20;99787.00;;;;4956469;28;108837;-63
2023/12/05 06:41:41;;;;;;;7.67;6.30;;;-0.80;99.90;-1.20;99776.00;;;;4950720;28;93778;-63
2023/12/05 06:44:07;;;;;;;10.17;6.90;;;-0.70;99.90;-1.20;99786.00;;;;4952005;28;120368;-65
2023/12/05 06:46:33;;;;;;;11.27;6.13;;;-0.90;99.90;-1.20;99788.00;;;;4947629;28;109303;-63
2023/12/05 06:48:59;;;;;;;13.60;8.17;;;-0.80;99.90;-1.20;99791.00;;;;4947578;28;109475;-63
2023/12/05 06:51:25;;;;;;;13.93;7.53;;;-0.90;99.90;-1.20;99782.00;;;;4952453;28;94160;-64
2023/12/05 06:53:50;;;;;;;10.97;6.30;;;-0.90;99.90;-1.20;99777.00;;;;4952855;28;94138;-64
2023/12/05 06:56:18;;;;;;;9.47;6.67;;;-0.80;99.90;-1.10;99781.00;;;;4953106;28;111313;-64
2023/12/05 06:58:44;;;;;;;11.47;6.23;;;-1.50;99.90;-1.10;99780.00;;;;4953124;28;100163;-64
2023/12/05 07:01:10;;;;;;;10.90;6.40;;;-0.70;99.90;-1.10;99779.00;;;;4949846;28;94527;-64
2023/12/05 07:03:36;;;;;;;7.63;5.63;;;-0.60;99.90;-1.10;99787.00;;;;4949852;28;122979;-64
2023/12/05 07:06:04;;;;;;;11.90;5.73;;;-0.70;99.90;-1.00;99786.00;;;;4949265;28;92942;-63
2023/12/05 07:08:30;;;;;;;17.57;11.70;;;-0.60;99.90;-1.00;99784.00;;;;4952565;28;92794;-63
2023/12/05 07:10:55;;;;;;;11.63;6.17;;;-0.60;99.90;-1.00;99786.00;;;;4952609;28;122983;-63
2023/12/05 07:13:21;;;;;;;14.47;8.30;;;-0.60;99.90;-0.90;99797.00;;;;4951779;28;123187;-64
2023/12/05 07:15:47;;;;;;;11.13;7.50;;;-0.50;99.90;-0.90;99789.00;;;;4952011;28;112083;-64
2023/12/05 07:18:12;;;;;;;20.60;12.47;;;-0.60;99.90;-0.90;99788.00;;;;4948345;28;108088;-63
2023/12/05 07:20:38;;;;;;;14.97;9.53;;;-0.50;99.90;-0.90;99789.00;;;;4950884;28;122539;-63
2023/12/05 07:23:03;;;;;;;9.77;6.53;;;-0.50;99.90;-0.80;99784.00;;;;4953846;28;120189;-63
2023/12/05 07:25:29;;;;;;;9.37;7.53;;;-0.40;99.90;-0.80;99782.00;;;;4949009;28;109389;-63
2023/12/05 07:27:55;;;;;;;11.37;7.10;;;-0.50;99.90;-0.70;99794.00;;;;4948746;28;102441;-63
2023/12/05 07:30:21;;;;;;;16.00;10.50;;;-0.40;99.90;-0.70;99789.00;;;;4949886;28;120579;-63
2023/12/05 07:32:47;;;;;;;6.27;5.13;;;-0.40;99.90;-0.60;99793.00;;;;4947785;28;93697;-64
2023/12/05 07:35:13;;;;;;;8.10;5.73;;;0.40;99.90;-0.60;99793.00;;;;4952335;28;94016;-64
2023/12/05 07:37:38;;;;;;;6.00;5.00;;;-0.30;99.90;-0.60;99798.00;;;;4954071;28;92754;-63
2023/12/05 07:40:08;;;;;;;7.47;5.63;;;-0.20;99.90;-0.50;99805.00;;;;4948621;28;123347;-64
2023/12/05 07:42:34;;;;;;;9.30;5.23;;;-0.20;99.90;-0.50;99809.00;;;;4954226;28;93219;-64
2023/12/05 07:45:01;;;;;;;8.43;5.93;;;-0.10;99.90;-0.40;99804.00;;;;4945790;28;92541;-64
2023/12/05 07:47:27;;;;;;;7.10;5.07;;;-0.10;99.90;-0.40;99798.00;;;;4949429;28;93227;-64
2023/12/05 07:49:53;;;;;;;8.37;5.53;;;-0.10;99.90;-0.30;99818.00;;;;4949407;28;102561;-64
2023/12/05 07:52:19;;;;;;;7.83;4.93;;;-0.10;99.90;-0.30;99806.00;;;;4950101;28;121928;-64
2023/12/05 07:54:45;;;;;;;9.60;5.50;;;0.10;99.90;-0.30;99809.00;;;;4951433;28;92937;-63
2023/12/05 07:57:10;;;;;;;7.13;4.30;;;0.00;99.90;-0.20;99819.00;;;;4949817;28;109243;-65
2023/12/05 07:59:36;;;;;;;7.30;5.13;;;0.90;99.90;-0.20;99804.00;;;;4947688;28;122810;-64
2023/12/05 08:02:02;;;;;;;11.10;6.03;;;0.30;99.90;-0.10;99799.00;;;;4946283;28;122703;-65
2023/12/05 08:04:27;;;;;;;6.83;5.07;;;0.20;99.90;-0.10;99812.00;;;;4948477;28;92813;-64
2023/12/05 08:06:53;;;;;;;6.13;3.90;;;0.20;99.90;-0.10;99826.00;;;;4946583;28;93160;-65
2023/12/05 08:09:19;;;;;;;9.87;6.20;;;0.30;99.90;-0.10;99817.00;;;;4947118;28;94082;-65
2023/12/05 08:11:44;;;;;;;10.03;5.70;;;0.30;99.90;0.00;99808.00;;;;4947801;28;110478;-64
2023/12/05 08:14:10;;;;;;;8.60;5.60;;;0.30;99.90;0.00;99812.00;;;;4946217;28;93146;-65
2023/12/05 08:16:37;;;;;;;7.67;5.23;;;0.30;99.90;0.00;99824.00;;;;4945385;28;103745;-64
2023/12/05 08:19:02;;;;;;;8.57;5.77;;;0.30;99.90;0.00;99813.00;;;;4945724;28;93584;-66
2023/12/05 08:21:28;;;;;;;8.17;5.67;;;0.40;99.90;0.00;99833.00;;;;4949752;28;92988;-65
2023/12/05 08:23:54;;;;;;;6.73;5.53;;;0.40;99.90;0.10;99813.00;;;;4947221;28;110405;-64
2023/12/05 08:26:19;;;;;;;7.60;5.57;;;0.50;99.90;0.10;99824.00;;;;4943945;28;94061;-65
2023/12/05 08:28:48;;;;;;;6.13;4.70;;;0.30;99.90;0.20;99820.00;;;;4950280;28;123157;-66
2023/12/05 08:31:13;;;;;;;9.30;5.97;;;0.60;99.90;0.20;99826.00;;;;4945494;28;116652;-66
2023/12/05 08:33:39;;;;;;;7.50;5.77;;;0.50;99.90;0.20;99827.00;;;;4948309;28;108421;-65
2023/12/05 08:36:05;;;;;;;8.87;5.90;;;0.50;99.90;0.30;99825.00;;;;4950421;28;93026;-65
2023/12/05 08:38:31;;;;;;;6.27;5.37;;;0.60;99.90;0.30;99825.00;;;;4948964;28;93363;-64
2023/12/05 08:40:57;;;;;;;9.13;5.63;;;1.10;99.90;0.30;99817.00;;;;4949611;28;122152;-65
2023/12/05 08:43:22;;;;;;;7.77;5.57;;;1.70;99.90;0.30;99818.00;;;;4952310;28;102340;-65
2023/12/05 08:45:48;;;;;;;10.13;5.73;;;0.70;99.90;0.30;99810.00;;;;4951529;28;107827;-64
2023/12/05 08:48:13;;;;;;;6.57;5.07;;;0.70;99.90;0.40;99828.00;;;;4948712;28;93930;-66
2023/12/05 08:50:41;;;;;;;8.07;5.43;;;0.60;99.90;0.40;99817.00;;;;4947297;28;121021;-64
2023/12/05 08:53:06;;;;;;;10.10;6.50;;;0.70;99.90;0.50;99820.00;;;;4951132;28;92918;-64
2023/12/05 08:55:32;;;;;;;6.27;5.07;;;0.80;99.90;0.50;99817.00;;;;4948573;28;109894;-64
2023/12/05 08:57:58;;;;;;;7.47;4.77;;;0.80;99.90;0.50;99822.00;;;;4948154;28;120462;-65
2023/12/05 09:00:23;;;;;;;5.87;5.27;;;0.80;99.90;0.50;99826.00;;;;4952353;28;120927;-65
2023/12/05 09:02:49;;;;;;;8.10;5.87;;;0.80;99.90;0.50;99829.00;;;;4957617;28;110259;-64
2023/12/05 09:05:14;;;;;;;10.13;6.57;;;0.80;99.90;0.50;99826.00;;;;4946059;28;108816;-65
2023/12/05 09:07:40;;;;;;;9.97;6.43;;;0.90;99.90;0.50;99840.00;;;;4950204;28;122840;-66
2023/12/05 09:10:06;;;;;;;8.03;6.43;;;0.80;99.90;0.60;99832.00;;;;4944083;28;94722;-65
2023/12/05 09:12:32;;;;;;;7.63;5.67;;;0.90;99.90;0.60;99829.00;;;;4950538;28;92958;-66
2023/12/05 09:14:58;;;;;;;6.37;4.90;;;0.90;99.90;0.60;99845.00;;;;4951631;28;109555;-65
2023/12/05 09:17:24;;;;;;;9.67;4.77;;;0.80;99.90;0.60;99834.00;;;;4945297;28;94192;-64
2023/12/05 09:19:50;;;;;;;7.03;5.17;;;0.80;99.90;0.60;99836.00;;;;4946142;28;93032;-65
2023/12/05 09:22:17;;;;;;;8.37;5.87;;;1.00;99.90;0.60;99828.00;;;;4949612;28;93377;-65
2023/12/05 09:24:43;;;;;;;6.27;4.23;;;1.00;99.90;0.70;99830.00;;;;4953107;28;92995;-67
2023/12/05 09:27:08;;;;;;;8.70;5.57;;;0.90;99.90;0.70;99828.00;;;;4951255;28;101190;-66
2023/12/05 09:29:34;;;;;;;10.00;5.80;;;1.00;99.90;0.70;99841.00;;;;4951848;28;120766;-65
2023/12/05 09:32:00;;;;;;;10.63;5.70;;;1.00;99.90;0.70;99830.00;;;;4948896;28;93203;-67
2023/12/05 09:34:25;;;;;;;8.07;6.27;;;1.10;99.90;0.80;99833.00;;;;4950558;28;109180;-67
2023/12/05 09:36:51;;;;;;;8.17;5.67;;;1.00;99.90;0.70;99841.00;;;;4950206;28;121941;-65
2023/12/05 09:39:17;;;;;;;10.83;6.07;;;1.10;99.90;0.70;99841.00;;;;4953195;28;122270;-66
2023/12/05 09:41:50;;;;;;;10.40;6.97;;;1.00;99.90;0.70;99831.00;;;;4949024;28;110151;-66
2023/12/05 09:44:23;;;;;;;10.53;6.10;;;0.90;99.90;0.60;99833.00;;;;4950157;28;92733;-66
2023/12/05 09:46:54;;;;;;;8.97;6.70;;;0.90;99.90;0.50;99826.00;;;;4947444;28;92341;-65
2023/12/05 09:49:26;;;;;;;13.53;7.30;;;0.90;99.90;0.40;99819.00;;;;4950070;28;94286;-65
2023/12/05 09:51:53;;;;;;;10.73;7.07;;;1.10;99.90;0.40;99834.00;;;;4958864;28;92888;-66
2023/12/05 09:54:19;;;;;;;9.87;6.27;;;0.70;99.90;0.40;99825.00;;;;4948614;28;101683;-65
2023/12/05 09:56:48;;;;;;;8.43;5.77;;;0.60;99.90;0.30;99823.00;;;;4949009;28;121945;-66
2023/12/05 09:59:16;;;;;;;8.03;6.20;;;1.10;99.90;0.30;99821.00;;;;4946962;28;122600;-66
2023/12/05 10:01:44;;;;;;;11.87;7.87;;;0.60;99.90;0.30;99821.00;;;;4958145;28;108747;-66
2023/12/05 10:04:18;;;;;;;10.40;7.43;;;0.60;99.90;0.30;99817.00;;;;4943861;28;93314;-67
2023/12/05 10:06:47;;;;;;;15.30;8.30;;;0.60;99.90;0.30;99811.00;;;;4947278;28;93949;-66
2023/12/05 10:09:15;;;;;;;11.30;6.17;;;0.60;99.90;0.30;99801.00;;;;4950085;28;93969;-65
2023/12/05 10:11:41;;;;;;;15.73;9.50;;;0.60;99.90;0.30;99802.00;;;;4953605;28;91934;-66
2023/12/05 10:14:07;;;;;;;10.87;6.93;;;0.60;99.90;0.30;99803.00;;;;4952007;28;110589;-66
2023/12/05 10:16:33;;;;;;;11.10;8.30;;;0.60;99.90;0.40;99796.00;;;;4948253;28;118138;-67
2023/12/05 10:18:59;;;;;;;9.47;6.97;;;0.60;99.90;0.40;99802.00;;;;4950308;28;122688;-66
2023/12/05 10:21:25;;;;;;;11.70;7.97;;;0.60;99.90;0.40;99797.00;;;;4955797;28;92991;-66
2023/12/05 10:23:51;;;;;;;11.60;7.90;;;0.70;99.90;0.40;99794.00;;;;4950909;28;92932;-68
2023/12/05 10:26:17;;;;;;;10.47;8.50;;;0.70;99.90;0.40;99794.00;;;;4943078;28;122593;-67
2023/12/05 10:28:51;;;;;;;27.80;13.77;;;0.80;99.90;0.40;99783.00;;;;4950445;28;111448;-67
2023/12/05 10:31:20;;;;;;;18.50;10.90;;;0.80;99.90;0.50;99789.00;;;;4954779;28;102271;-67
2023/12/05 10:33:46;;;;;;;12.83;9.50;;;0.70;99.90;0.50;99794.00;;;;4950455;28;93011;-67
2023/12/05 10:36:12;;;;;;;13.73;9.10;;;0.80;99.90;0.50;99798.00;;;;4952025;28;92095;-67
2023/12/05 10:38:43;;;;;;;16.57;10.40;;;0.80;99.90;0.60;99796.00;;;;4951644;28;96322;-67
2023/12/05 10:41:09;;;;;;;19.83;11.67;;;0.90;99.90;0.60;99779.00;;;;4951324;28;94499;-67
2023/12/05 10:43:49;;;;;;;17.17;10.50;;;0.90;99.90;0.60;99788.00;;;;4952628;28;97904;-67
2023/12/05 10:46:15;;;;;;;14.27;8.33;;;0.90;99.90;0.60;99793.00;;;;4944096;28;93078;-67
2023/12/05 10:48:41;;;;;;;10.43;7.17;;;0.80;99.90;0.60;99798.00;;;;4951160;28;93134;-67
2023/12/05 10:51:08;;;;;;;11.63;7.50;;;0.90;99.90;0.60;99788.00;;;;4940450;28;111348;-69